createdAt,value
2022-11-25T00:01:31.259Z,1.00
2022-11-25T00:03:58.983Z,1.00
2022-11-25T00:06:27.905Z,1.00
2022-11-25T00:08:58.103Z,99.90
2022-11-25T00:11:25.514Z,99.90
2022-11-25T00:13:52.519Z,21.70
2022-11-25T00:16:21.702Z,99.90
2022-11-25T00:18:50.956Z,1.00
2022-11-25T00:21:23.376Z,1.00
2022-11-25T00:24:04.915Z,99.90
2022-11-25T00:26:32.911Z,99.90
2022-11-25T00:29:02.413Z,99.90
2022-11-25T00:31:32.122Z,99.90
2022-11-25T00:33:59.235Z,1.00
2022-11-25T00:36:29.962Z,1.00
2022-11-25T00:38:59.315Z,1.00
2022-11-25T00:41:45.661Z,1.00
2022-11-25T00:44:38.892Z,99.90
2022-11-25T00:47:14.964Z,99.90
2022-11-25T00:49:44.804Z,99.90
2022-11-25T00:52:15.712Z,1.00
2022-11-25T00:54:44.717Z,1.00
2022-11-25T00:57:12.740Z,81.40
2022-11-25T00:59:39.728Z,1.00
2022-11-25T01:02:07.198Z,1.00
2022-11-25T01:04:34.782Z,1.00
2022-11-25T01:07:02.373Z,1.00
2022-11-25T01:09:29.430Z,1.00
2022-11-25T01:11:56.525Z,1.00
2022-11-25T01:14:24.271Z,99.90
2022-11-25T01:16:51.868Z,99.90
2022-11-25T01:19:20.049Z,94.00
2022-11-25T01:21:47.295Z,99.90
2022-11-25T01:24:16.080Z,93.50
2022-11-25T01:26:44.257Z,99.90
2022-11-25T01:29:15.457Z,1.00
2022-11-25T01:31:42.563Z,1.00
2022-11-25T01:34:15.670Z,1.00
2022-11-25T01:36:44.036Z,1.00
2022-11-25T01:39:18.375Z,1.00
2022-11-25T01:41:46.179Z,62.80
2022-11-25T01:44:22.536Z,1.00
2022-11-25T01:47:15.139Z,1.00
2022-11-25T01:49:50.270Z,3.00
2022-11-25T01:52:28.479Z,99.90
2022-11-25T01:55:01.572Z,1.00
2022-11-25T01:57:57.573Z,1.00
2022-11-25T02:00:25.661Z,1.00
2022-11-25T02:02:54.977Z,1.00
2022-11-25T02:05:40.503Z,1.00
2022-11-25T02:08:08.392Z,99.90
2022-11-25T02:10:36.394Z,99.90
2022-11-25T02:13:04.158Z,36.50
2022-11-25T02:15:35.413Z,99.90
2022-11-25T02:18:03.008Z,99.90
2022-11-25T02:20:30.111Z,1.00
2022-11-25T02:23:16.630Z,1.00
2022-11-25T02:25:45.246Z,99.90
2022-11-25T02:28:19.646Z,99.90
2022-11-25T02:30:47.076Z,99.90
2022-11-25T02:33:15.045Z,99.90
2022-11-25T02:35:43.630Z,99.90
2022-11-25T02:38:17.079Z,1.00
2022-11-25T02:40:55.155Z,1.00
2022-11-25T02:43:22.561Z,1.00
2022-11-25T02:46:17.410Z,99.90
2022-11-25T02:49:07.891Z,99.90
2022-11-25T02:51:35.028Z,1.00
2022-11-25T02:54:02.334Z,1.00
2022-11-25T02:56:32.222Z,99.90
2022-11-25T02:58:59.459Z,1.00
2022-11-25T03:01:26.856Z,1.00
2022-11-25T03:03:53.930Z,1.00
2022-11-25T03:06:20.999Z,1.00
2022-11-25T03:08:47.973Z,21.70
2022-11-25T03:11:15.192Z,99.90
2022-11-25T03:13:42.281Z,99.90
2022-11-25T03:16:09.350Z,99.90
2022-11-25T03:18:36.757Z,99.90
2022-11-25T03:21:03.949Z,1.00
2022-11-25T03:23:30.927Z,1.00
2022-11-25T03:25:57.951Z,1.00
2022-11-25T03:28:24.976Z,1.00
2022-11-25T03:30:52.245Z,1.00
2022-11-25T03:33:19.248Z,99.40
2022-11-25T03:35:48.084Z,1.00
2022-11-25T03:38:15.032Z,1.00
2022-11-25T03:40:41.922Z,1.00
2022-11-25T03:43:08.821Z,99.90
2022-11-25T03:45:35.799Z,99.90
2022-11-25T03:48:02.728Z,99.90
2022-11-25T03:50:29.671Z,1.00
2022-11-25T03:52:56.591Z,1.00
2022-11-25T03:55:23.507Z,1.00
2022-11-25T03:57:50.445Z,1.00
2022-11-25T04:00:17.482Z,1.00
2022-11-25T04:02:44.447Z,1.00
2022-11-25T04:05:11.442Z,14.00
2022-11-25T04:07:38.470Z,99.90
2022-11-25T04:10:05.980Z,99.90
2022-11-25T04:12:47.870Z,99.90
2022-11-25T04:15:16.450Z,33.30
2022-11-25T04:17:43.656Z,99.90
2022-11-25T04:20:11.825Z,99.90
2022-11-25T04:22:38.759Z,99.90
2022-11-25T04:25:06.223Z,99.90
2022-11-25T04:27:33.214Z,99.90
2022-11-25T04:30:00.310Z,99.90
2022-11-25T04:32:27.560Z,99.90
2022-11-25T04:34:54.530Z,99.90
2022-11-25T04:37:21.772Z,99.90
2022-11-25T04:39:48.755Z,99.90
2022-11-25T04:42:34.685Z,1.00
2022-11-25T04:47:51.433Z,1.00
2022-11-25T04:50:20.703Z,99.90
2022-11-25T04:52:47.712Z,99.90
2022-11-25T04:55:14.804Z,99.90
2022-11-25T04:57:41.705Z,1.00
2022-11-25T05:00:09.594Z,1.00
2022-11-25T05:02:36.687Z,1.00
2022-11-25T05:05:04.247Z,1.00
2022-11-25T05:07:31.285Z,1.00
2022-11-25T05:09:58.459Z,99.90
2022-11-25T05:12:28.716Z,99.90
2022-11-25T05:14:56.160Z,99.90
2022-11-25T05:17:25.996Z,99.90
2022-11-25T05:19:53.329Z,99.90
2022-11-25T05:22:23.175Z,1.00
2022-11-25T05:24:50.133Z,1.00
2022-11-25T05:27:18.001Z,99.90
2022-11-25T05:29:45.423Z,99.90
2022-11-25T05:32:13.090Z,1.00
2022-11-25T05:34:40.563Z,1.00
2022-11-25T05:37:07.621Z,99.90
2022-11-25T05:39:34.584Z,99.90
2022-11-25T05:42:01.504Z,99.90
2022-11-25T05:44:28.518Z,1.00
2022-11-25T05:46:55.491Z,1.00
2022-11-25T05:49:22.451Z,99.90
2022-11-25T05:51:49.353Z,99.90
2022-11-25T05:54:16.328Z,1.00
2022-11-25T05:56:43.201Z,15.50
2022-11-25T05:59:10.158Z,99.90
2022-11-25T06:01:37.041Z,1.00
2022-11-25T06:04:05.207Z,99.90
2022-11-25T06:06:32.856Z,1.00
2022-11-25T06:09:00.207Z,99.90
2022-11-25T06:11:27.280Z,99.90
2022-11-25T06:13:57.901Z,99.90
2022-11-25T06:16:25.736Z,99.90
2022-11-25T06:18:52.996Z,99.90
2022-11-25T06:21:20.340Z,1.00
2022-11-25T06:23:47.371Z,99.90
2022-11-25T06:26:20.257Z,99.90
2022-11-25T06:28:47.791Z,99.90
2022-11-25T06:31:17.810Z,99.90
2022-11-25T06:33:47.758Z,99.90
2022-11-25T06:36:17.489Z,1.00
2022-11-25T06:38:49.832Z,99.90
2022-11-25T06:41:17.217Z,1.00
2022-11-25T06:43:44.376Z,1.00
2022-11-25T06:46:17.439Z,1.00
2022-11-25T06:48:48.149Z,1.00
2022-11-25T06:51:15.874Z,1.00
2022-11-25T06:53:42.944Z,99.90
2022-11-25T06:56:16.259Z,1.00
2022-11-25T06:58:44.641Z,99.90
2022-11-25T07:01:15.782Z,99.90
2022-11-25T07:03:43.892Z,14.80
2022-11-25T07:06:13.328Z,99.90
2022-11-25T07:08:40.951Z,99.90
2022-11-25T07:11:12.970Z,1.00
2022-11-25T07:13:39.883Z,1.00
2022-11-25T07:16:08.108Z,1.00
2022-11-25T07:18:37.335Z,1.00
2022-11-25T07:21:13.578Z,99.90
2022-11-25T07:23:41.517Z,1.00
2022-11-25T07:26:11.288Z,99.90
2022-11-25T07:28:38.967Z,20.90
2022-11-25T07:31:33.332Z,99.90
2022-11-25T07:34:12.083Z,99.90
2022-11-25T07:36:39.624Z,99.90
2022-11-25T07:39:09.248Z,1.00
2022-11-25T07:41:36.348Z,1.00
2022-11-25T07:44:05.709Z,1.00
2022-11-25T07:46:32.643Z,1.00
2022-11-25T07:49:02.268Z,1.00
2022-11-25T07:51:40.834Z,1.00
2022-11-25T07:54:09.721Z,1.00
2022-11-25T07:56:38.537Z,66.30
2022-11-25T07:59:06.458Z,99.90
2022-11-25T08:01:33.363Z,99.90
2022-11-25T08:04:00.245Z,99.90
2022-11-25T08:06:29.657Z,99.90
2022-11-25T08:08:58.179Z,99.90
2022-11-25T08:11:27.329Z,63.00
2022-11-25T08:13:54.632Z,99.90
2022-11-25T08:16:24.914Z,99.90
2022-11-25T08:18:51.955Z,1.00
2022-11-25T08:21:19.094Z,1.00
2022-11-25T08:23:52.570Z,1.00
2022-11-25T08:26:30.343Z,99.90
2022-11-25T08:28:58.753Z,1.00
2022-11-25T08:31:31.445Z,1.00
2022-11-25T08:33:59.554Z,1.00
2022-11-25T08:36:28.147Z,99.90
2022-11-25T08:38:59.835Z,99.90
2022-11-25T08:41:34.320Z,99.90
2022-11-25T08:44:02.651Z,1.00
2022-11-25T08:46:34.306Z,99.90
2022-11-25T08:49:01.294Z,1.00
2022-11-25T08:51:30.606Z,1.00
2022-11-25T08:53:58.168Z,1.00
2022-11-25T08:56:26.662Z,1.00
2022-11-25T08:58:55.026Z,99.90
2022-11-25T09:01:23.642Z,1.00
2022-11-25T09:03:55.433Z,99.90
2022-11-25T09:06:22.981Z,99.90
2022-11-25T09:08:49.871Z,99.90
2022-11-25T09:11:17.155Z,1.00
2022-11-25T09:13:44.244Z,1.00
2022-11-25T09:16:11.272Z,99.90
2022-11-25T09:18:38.258Z,99.90
2022-11-25T09:21:10.817Z,85.50
2022-11-25T09:23:39.436Z,99.90
2022-11-25T09:26:07.582Z,99.90
2022-11-25T09:28:35.582Z,74.60
2022-11-25T09:31:09.469Z,99.90
2022-11-25T09:33:36.592Z,99.90
2022-11-25T09:36:04.357Z,99.90
2022-11-25T09:38:31.304Z,99.90
2022-11-25T09:41:01.671Z,55.20
2022-11-25T09:44:23.630Z,99.90
2022-11-25T09:47:05.474Z,30.20
2022-11-25T09:50:01.028Z,1.00
2022-11-25T09:52:48.095Z,1.00
2022-11-25T09:55:22.817Z,1.00
2022-11-25T09:58:20.683Z,1.00
2022-11-25T10:00:49.776Z,1.00
2022-11-25T10:03:43.905Z,99.90
2022-11-25T10:06:33.028Z,99.90
2022-11-25T10:09:04.359Z,99.90
2022-11-25T10:11:54.315Z,99.90
2022-11-25T10:14:30.241Z,91.50
2022-11-25T10:17:19.121Z,99.90
2022-11-25T10:20:05.354Z,99.90
2022-11-25T10:22:39.100Z,1.00
2022-11-25T10:25:22.226Z,1.00
2022-11-25T10:28:24.295Z,92.80
2022-11-25T10:31:16.837Z,1.00
2022-11-25T10:33:50.177Z,1.00
2022-11-25T10:36:26.245Z,99.90
2022-11-25T10:39:15.316Z,99.90
2022-11-25T10:41:55.310Z,99.90
2022-11-25T10:44:33.692Z,46.20
2022-11-25T10:47:27.268Z,1.00
2022-11-25T10:50:30.778Z,1.00
2022-11-25T10:53:04.686Z,1.00
2022-11-25T10:55:33.719Z,1.00
2022-11-25T10:58:31.164Z,1.00
2022-11-25T11:01:23.290Z,1.00
2022-11-25T11:04:03.611Z,1.00
2022-11-25T11:06:42.271Z,1.00
2022-11-25T11:09:32.667Z,1.00
2022-11-25T11:12:22.245Z,1.00
2022-11-25T11:14:49.289Z,1.00
2022-11-25T11:17:42.577Z,1.00
2022-11-25T11:20:09.391Z,1.00
2022-11-25T11:22:44.687Z,1.00
2022-11-25T11:25:25.678Z,1.00
2022-11-25T11:27:52.579Z,1.00
2022-11-25T11:30:23.327Z,1.00
2022-11-25T11:33:18.014Z,1.00
2022-11-25T11:36:16.244Z,1.00
2022-11-25T11:38:52.414Z,1.00
2022-11-25T11:41:38.131Z,1.00
2022-11-25T11:44:39.635Z,1.00
2022-11-25T11:47:50.905Z,1.00
2022-11-25T11:50:40.994Z,1.00
2022-11-25T11:53:26.411Z,1.00
2022-11-25T11:56:35.682Z,1.00
2022-11-25T11:59:36.386Z,1.00
2022-11-25T12:02:21.986Z,99.90
2022-11-25T12:05:07.668Z,99.90
2022-11-25T12:07:50.030Z,99.90
2022-11-25T12:10:22.901Z,99.90
2022-11-25T12:12:55.283Z,99.90
2022-11-25T12:15:32.391Z,99.90
2022-11-25T12:18:04.833Z,99.90
2022-11-25T12:20:50.539Z,99.90
2022-11-25T12:23:46.913Z,1.00
2022-11-25T12:26:39.276Z,1.00
2022-11-25T12:29:16.075Z,99.90
2022-11-25T12:31:50.663Z,99.90
2022-11-25T12:34:29.116Z,99.90
2022-11-25T12:37:07.459Z,99.90
2022-11-25T12:40:13.283Z,58.10
2022-11-25T12:42:41.710Z,22.40
2022-11-25T12:45:21.916Z,1.00
2022-11-25T12:47:49.439Z,1.00
2022-11-25T12:51:00.171Z,1.00
2022-11-25T12:53:43.148Z,1.00
2022-11-25T12:56:21.752Z,1.00
2022-11-25T12:59:04.615Z,1.00
2022-11-25T13:02:09.174Z,1.00
2022-11-25T13:05:32.853Z,1.00
2022-11-25T13:08:32.778Z,1.00
2022-11-25T13:11:27.228Z,1.00
2022-11-25T13:14:24.608Z,1.00
2022-11-25T13:16:53.936Z,1.00
2022-11-25T13:19:21.782Z,1.00
2022-11-25T13:22:06.668Z,1.00
2022-11-25T13:24:41.914Z,1.00
2022-11-25T13:27:40.341Z,1.00
2022-11-25T13:30:33.034Z,1.00
2022-11-25T13:33:11.999Z,1.00
2022-11-25T13:35:56.548Z,1.00
2022-11-25T13:38:29.479Z,1.00
2022-11-25T13:41:24.282Z,1.00
2022-11-25T13:44:20.391Z,1.00
2022-11-25T13:46:53.611Z,1.00
2022-11-25T13:49:29.351Z,1.00
2022-11-25T13:51:59.802Z,1.00
2022-11-25T13:54:35.366Z,1.00
2022-11-25T13:57:27.621Z,1.00
2022-11-25T14:00:00.802Z,1.00
2022-11-25T14:02:27.824Z,1.00
2022-11-25T14:05:05.777Z,1.00
2022-11-25T14:08:10.248Z,1.00
2022-11-25T14:10:50.971Z,1.00
2022-11-25T14:13:38.566Z,1.00
2022-11-25T14:16:43.186Z,1.00
2022-11-25T14:19:43.182Z,1.00
2022-11-25T14:22:09.010Z,1.00
2022-11-25T14:24:43.858Z,1.00
2022-11-25T14:27:17.469Z,1.00
2022-11-25T14:29:52.471Z,1.00
2022-11-25T14:32:50.287Z,1.00
2022-11-25T14:35:25.554Z,1.00
2022-11-25T14:38:00.227Z,1.00
2022-11-25T14:40:44.751Z,1.00
2022-11-25T14:43:20.930Z,1.00
2022-11-25T14:45:48.029Z,1.00
2022-11-25T14:48:25.911Z,1.00
2022-11-25T14:51:03.991Z,1.00
2022-11-25T14:53:31.370Z,1.00
2022-11-25T14:56:00.812Z,1.00
2022-11-25T14:58:27.821Z,1.00
2022-11-25T15:00:57.741Z,1.00
2022-11-25T15:03:25.042Z,1.00
2022-11-25T15:05:57.360Z,1.00
2022-11-25T15:08:26.236Z,1.00
2022-11-25T15:11:07.189Z,1.00
2022-11-25T15:13:40.625Z,1.00
2022-11-25T15:16:21.053Z,1.00
2022-11-25T15:18:56.991Z,1.00
2022-11-25T15:21:30.018Z,1.00
2022-11-25T15:23:57.612Z,1.00
2022-11-25T15:26:31.274Z,1.00
2022-11-25T15:29:10.271Z,1.00
2022-11-25T15:31:39.033Z,1.00
2022-11-25T15:34:11.458Z,1.00
2022-11-25T15:36:38.885Z,1.00
2022-11-25T15:39:20.894Z,1.00
2022-11-25T15:41:53.865Z,1.00
2022-11-25T15:44:30.700Z,1.00
2022-11-25T15:47:17.904Z,1.00
2022-11-25T15:49:54.026Z,1.00
2022-11-25T15:52:23.139Z,1.00
2022-11-25T15:54:52.574Z,1.00
2022-11-25T15:57:32.006Z,1.00
2022-11-25T15:59:58.846Z,1.00
2022-11-25T16:02:43.696Z,1.00
2022-11-25T16:05:16.223Z,1.00
2022-11-25T16:07:52.624Z,1.00
2022-11-25T16:10:31.794Z,1.00
2022-11-25T16:13:23.712Z,1.00
2022-11-25T16:16:09.464Z,1.00
2022-11-25T16:19:06.151Z,1.00
2022-11-25T16:21:36.131Z,1.00
2022-11-25T16:24:05.833Z,1.00
2022-11-25T16:26:36.229Z,1.00
2022-11-25T16:29:20.302Z,1.00
2022-11-25T16:31:47.308Z,1.00
2022-11-25T16:34:20.354Z,1.00
2022-11-25T16:36:47.447Z,1.00
2022-11-25T16:39:14.476Z,1.00
2022-11-25T16:41:42.521Z,1.00
2022-11-25T16:44:18.730Z,1.00
2022-11-25T16:46:45.668Z,1.00
2022-11-25T16:49:16.477Z,1.00
2022-11-25T16:51:44.136Z,1.00
2022-11-25T16:54:12.525Z,1.00
2022-11-25T16:56:44.390Z,1.00
2022-11-25T16:59:25.706Z,1.00
2022-11-25T17:01:53.523Z,1.00
2022-11-25T17:04:20.512Z,1.00
2022-11-25T17:07:16.338Z,1.00
2022-11-25T17:09:34.942Z,1.00
2022-11-25T17:12:02.165Z,1.00
2022-11-25T17:14:33.261Z,1.00
2022-11-25T17:17:01.438Z,1.00
2022-11-25T17:19:28.563Z,1.00
2022-11-25T17:21:55.529Z,1.00
2022-11-25T17:24:23.972Z,1.00
2022-11-25T17:26:56.371Z,1.00
2022-11-25T17:29:31.606Z,1.00
2022-11-25T17:31:58.955Z,1.00
2022-11-25T17:34:25.942Z,1.00
2022-11-25T17:36:52.829Z,10.50
2022-11-25T17:39:19.774Z,16.60
2022-11-25T17:41:49.271Z,20.00
2022-11-25T17:44:27.904Z,22.00
2022-11-25T17:46:56.841Z,25.40
2022-11-25T17:49:24.332Z,28.80
2022-11-25T17:51:51.655Z,37.70
2022-11-25T17:54:18.599Z,54.80
2022-11-25T17:56:51.759Z,65.40
2022-11-25T17:59:25.749Z,70.50
2022-11-25T18:01:53.306Z,74.40
2022-11-25T18:04:24.375Z,73.70
2022-11-25T18:06:51.914Z,76.30
2022-11-25T18:09:19.788Z,75.70
2022-11-25T18:11:50.671Z,75.50
2022-11-25T18:14:20.580Z,80.60
2022-11-25T18:16:47.746Z,83.70
2022-11-25T18:19:14.750Z,94.10
2022-11-25T18:21:41.780Z,97.40
2022-11-25T18:24:08.858Z,99.90
2022-11-25T18:26:49.951Z,99.90
2022-11-25T18:29:35.209Z,99.90
2022-11-25T18:32:02.111Z,99.90
2022-11-25T18:34:29.104Z,99.90
2022-11-25T18:36:56.007Z,99.90
2022-11-25T18:39:23.469Z,99.90
2022-11-25T18:41:53.936Z,99.90
2022-11-25T18:44:27.882Z,99.90
2022-11-25T18:46:55.244Z,99.90
2022-11-25T18:49:23.877Z,99.90
2022-11-25T18:51:50.931Z,99.90
2022-11-25T18:54:17.825Z,99.90
2022-11-25T18:56:48.723Z,99.90
2022-11-25T18:59:19.613Z,99.90
2022-11-25T19:01:49.859Z,99.90
2022-11-25T19:04:17.204Z,99.90
2022-11-25T19:06:44.624Z,99.90
2022-11-25T19:09:12.043Z,99.90
2022-11-25T19:11:51.227Z,99.90
2022-11-25T19:14:36.227Z,99.90
2022-11-25T19:17:09.479Z,99.90
2022-11-25T19:19:37.980Z,99.90
2022-11-25T19:22:15.804Z,99.90
2022-11-25T19:24:43.278Z,99.90
2022-11-25T19:27:32.034Z,99.90
2022-11-25T19:29:59.139Z,99.90
2022-11-25T19:32:28.852Z,99.90
2022-11-25T19:35:02.409Z,99.90
2022-11-25T19:37:31.954Z,99.90
2022-11-25T19:39:59.042Z,99.90
2022-11-25T19:42:26.068Z,99.90
2022-11-25T19:44:53.120Z,99.90
2022-11-25T19:47:23.006Z,99.90
2022-11-25T19:49:52.917Z,99.90
2022-11-25T19:52:30.396Z,99.90
2022-11-25T19:54:57.250Z,99.90
2022-11-25T19:57:24.940Z,99.90
2022-11-25T19:59:51.950Z,99.90
2022-11-25T20:02:24.405Z,99.90
2022-11-25T20:04:54.507Z,99.90
2022-11-25T20:07:22.222Z,99.90
2022-11-25T20:09:51.597Z,99.90
2022-11-25T20:12:24.922Z,99.90
2022-11-25T20:14:52.621Z,99.90
2022-11-25T20:17:26.533Z,99.90
2022-11-25T20:19:54.815Z,99.90
2022-11-25T20:22:26.637Z,99.90
2022-11-25T20:24:54.869Z,99.90
2022-11-25T20:27:25.066Z,99.90
2022-11-25T20:29:52.163Z,99.90
2022-11-25T20:32:24.380Z,99.90
2022-11-25T20:34:51.274Z,99.90
2022-11-25T20:37:23.772Z,96.90
2022-11-25T20:39:53.333Z,94.50
2022-11-25T20:42:21.581Z,84.10
2022-11-25T20:44:53.307Z,72.80
2022-11-25T20:47:25.155Z,90.80
2022-11-25T20:49:52.091Z,95.70
2022-11-25T20:52:24.705Z,96.80
2022-11-25T20:54:51.601Z,98.00
2022-11-25T20:57:18.497Z,99.90
2022-11-25T20:59:45.400Z,99.90
2022-11-25T21:02:12.636Z,99.90
2022-11-25T21:04:39.931Z,99.90
2022-11-25T21:07:15.405Z,99.90
2022-11-25T21:09:42.839Z,99.90
2022-11-25T21:12:18.854Z,99.90
2022-11-25T21:14:47.164Z,99.90
2022-11-25T21:17:14.136Z,99.90
2022-11-25T21:19:41.164Z,99.90
2022-11-25T21:22:13.615Z,99.90
2022-11-25T21:24:42.450Z,99.90
2022-11-25T21:27:17.066Z,99.90
2022-11-25T21:29:45.488Z,94.90
2022-11-25T21:32:30.795Z,90.00
2022-11-25T21:34:58.249Z,75.60
2022-11-25T21:37:30.885Z,69.00
2022-11-25T21:39:59.390Z,59.00
2022-11-25T21:42:27.620Z,56.10
2022-11-25T21:44:55.192Z,54.70
2022-11-25T21:47:24.839Z,54.40
2022-11-25T21:49:51.955Z,53.60
2022-11-25T21:52:19.248Z,50.40
2022-11-25T21:54:46.191Z,48.00
2022-11-25T21:57:22.760Z,46.70
2022-11-25T21:59:49.817Z,42.50
2022-11-25T22:02:22.506Z,37.70
2022-11-25T22:04:49.950Z,37.10
2022-11-25T22:07:16.966Z,37.70
2022-11-25T22:09:44.201Z,28.30
2022-11-25T22:12:25.289Z,20.40
2022-11-25T22:14:52.564Z,15.30
2022-11-25T22:17:19.931Z,14.10
2022-11-25T22:19:47.069Z,13.40
2022-11-25T22:22:15.669Z,15.30
2022-11-25T22:24:42.656Z,16.90
2022-11-25T22:27:26.044Z,18.30
2022-11-25T22:29:53.140Z,17.60
2022-11-25T22:32:20.101Z,15.70
2022-11-25T22:34:47.013Z,8.70
2022-11-25T22:37:22.792Z,4.50
2022-11-25T22:39:51.151Z,3.10
2022-11-25T22:42:36.774Z,1.10
2022-11-25T22:45:06.626Z,1.00
2022-11-25T22:47:35.994Z,2.50
2022-11-25T22:50:25.038Z,7.50
2022-11-25T22:52:53.405Z,14.90
2022-11-25T22:55:22.385Z,16.90
2022-11-25T22:57:50.869Z,20.20
2022-11-25T23:00:31.784Z,19.70
2022-11-25T23:03:00.417Z,14.50
2022-11-25T23:05:33.971Z,8.60
2022-11-25T23:08:02.615Z,3.80
2022-11-25T23:10:31.531Z,1.00
2022-11-25T23:12:58.444Z,1.00
2022-11-25T23:15:25.331Z,1.00
2022-11-25T23:17:55.788Z,1.00
2022-11-25T23:20:28.052Z,1.00
2022-11-25T23:22:54.977Z,1.00
2022-11-25T23:25:23.573Z,1.00
2022-11-25T23:27:50.442Z,1.00
2022-11-25T23:30:23.347Z,1.00
2022-11-25T23:32:52.485Z,1.00
2022-11-25T23:35:26.704Z,1.00
2022-11-25T23:37:55.468Z,1.00
2022-11-25T23:40:25.481Z,1.00
2022-11-25T23:42:52.660Z,1.00
2022-11-25T23:45:23.389Z,1.00
2022-11-25T23:47:52.715Z,1.00
2022-11-25T23:50:32.946Z,1.00
2022-11-25T23:53:06.890Z,6.10
2022-11-25T23:55:38.656Z,42.70
2022-11-25T23:58:15.691Z,65.00
